Darstellungsparameter: Aktuell verwendete Einstellungen:
Skalierung der Graphiken ... ?
xyx+y,   Skalierungsfaktor:      Skalierung: Modus: x, Faktor: 1
Darstellungszeitraum ... ?
Vom - - bis: - -   Zeitraum: 01.03.2021 - 01.03.2021
Min/Max/Avg-Anzeige ... ?
Zeige MMA aktuell
Zeige MMA Monat
Zeige MMA alles
Zeige --A aktuell
Zeige --A Monat
Zeige --A alles
Keine MMA-Anzeige
MMA:
Average (ber die Originaldaten)
MMA-Basis: 01.03.2021 - 01.03.2021
Quicknavigation für Darstellung... ?
Tage:      1T, 2T, 3T, 5T -1T -2T -3T -5T +1T +2T +3T +5T
Wochen: 1W, 2W, 3W -1W -2W -3W +1W +2W +3W
Monate: 1M, 3M, 6M -1M -3M -6M +1M +3M +6M
Jahre:    1J, 3J, 5J, 10J -1J -3J -5J -10J +1J +3J +5J +10J
Nutze für die Darstellung ... ?
Originaldaten oder Mittelwerte auf ...
Stundenbasis Tagesbasis Wochenbasis
Monatsbasis Jahresbasis      Datenbasis: Original-Daten
Darstellen als:
Statistik (Auto) Statistik J:M      Darstellung:

Der gewünschte Datumsbereich war nicht gültig/verfügbar und wurde korrigiert....
Das angegebene Enddatum (31.03.2021 23:59:59) liegt in der Zukunft.
Das angegebene Startdatum (03.03.2021 00:00:00) liegt in der Zukunft.


Zur Graphik,    zurück zur Übersicht aller Sensoren.
 
Tabellarische Datenbersicht: ?
 
Sensor: Nr:Datum:Temp:Feuchte:
Aussen-T/F 1 01-03-2021 01:09:17 -0.8 C 49 %
2 01-03-2021 01:19:17 -0.8 C 49 %
3 01-03-2021 01:29:18 -1.1 C 49 %
4 01-03-2021 01:39:18 -1.2 C 49 %
5 01-03-2021 01:49:18 -1.1 C 49 %
6 01-03-2021 01:59:18 -1.1 C 49 %
7 01-03-2021 02:09:18 -1.1 C 49 %
8 01-03-2021 02:19:17 -1 C 50 %
9 01-03-2021 02:29:17 -1.4 C 49 %
10 01-03-2021 02:39:17 -1.4 C 49 %
11 01-03-2021 02:49:17 -1.4 C 50 %
12 01-03-2021 02:59:17 -1.2 C 50 %
13 01-03-2021 03:09:17 -1.4 C 50 %
14 01-03-2021 03:19:18 -1.4 C 49 %
15 01-03-2021 03:29:18 -1.4 C 49 %
16 01-03-2021 03:39:17 -1.5 C 50 %
17 01-03-2021 03:49:17 -1.5 C 50 %
18 01-03-2021 03:59:17 -1.5 C 49 %
19 01-03-2021 04:09:17 -1.6 C 50 %
20 01-03-2021 04:19:17 -1.8 C 50 %
21 01-03-2021 04:29:17 -1.9 C 50 %
22 01-03-2021 04:39:17 -1.9 C 50 %
23 01-03-2021 04:49:18 -1.9 C 50 %
24 01-03-2021 04:59:18 -2.1 C 50 %
25 01-03-2021 05:09:17 -2.2 C 50 %
Sensor: Nr:Datum:Temp:Feuchte:
Aussen-T/F 26 01-03-2021 05:19:18 -2.3 C 50 %
27 01-03-2021 05:29:18 -2.1 C 50 %
28 01-03-2021 05:39:17 -2.2 C 50 %
29 01-03-2021 05:49:17 -2.4 C 50 %
30 01-03-2021 05:59:17 -2.5 C 50 %
31 01-03-2021 06:09:18 -2.4 C 50 %
32 01-03-2021 06:19:18 -2.3 C 50 %
33 01-03-2021 06:29:18 -2.2 C 50 %
34 01-03-2021 06:39:17 -2.2 C 50 %
35 01-03-2021 06:49:18 -2.2 C 50 %
36 01-03-2021 06:59:18 -2 C 50 %
37 01-03-2021 07:09:18 -2.3 C 50 %
38 01-03-2021 07:29:17 -2.7 C 49 %
39 01-03-2021 07:29:17 -2.3 C 49 %
40 01-03-2021 07:39:17 -2.4 C 49 %
41 01-03-2021 07:49:17 -2.1 C 49 %
42 01-03-2021 07:59:17 -2.4 C 49 %
43 01-03-2021 08:09:17 -2.4 C 49 %
44 01-03-2021 08:19:17 -2.2 C 49 %
45 01-03-2021 08:29:17 -2 C 50 %
46 01-03-2021 08:39:18 -2 C 49 %
47 01-03-2021 08:49:17 -1.8 C 50 %
48 01-03-2021 08:59:17 -1.8 C 49 %
49 01-03-2021 09:09:17 -1.6 C 50 %
50 01-03-2021 09:19:17 -1.3 C 50 %
Sensor: Nr:Datum:Temp:Feuchte:
Aussen-T/F 51 01-03-2021 09:29:17 -1 C 50 %
52 01-03-2021 09:39:18 -0.6 C 50 %
53 01-03-2021 09:49:17 -0.5 C 50 %
54 01-03-2021 09:59:17 -0.2 C 50 %
55 01-03-2021 10:09:17 0.6 C 50 %
56 01-03-2021 10:19:18 1 C 49 %
57 01-03-2021 10:29:18 1.7 C 49 %
58 01-03-2021 10:39:17 2.8 C 48 %
59 01-03-2021 10:49:17 2.9 C 47 %
60 01-03-2021 10:59:17 3.1 C 45 %
61 01-03-2021 11:09:17 3.4 C 43 %
62 01-03-2021 11:19:18 7 C 40 %
63 01-03-2021 11:29:18 8.6 C 36 %
64 01-03-2021 11:39:17 9.5 C 35 %
65 01-03-2021 11:50:17 6.3 C 36 %
66 01-03-2021 12:00:17 8.4 C 34 %
67 01-03-2021 12:10:17 9.2 C 33 %
68 01-03-2021 12:20:17 9.7 C 32 %
69 01-03-2021 12:29:18 10.4 C 32 %
70 01-03-2021 12:39:18 11.4 C 31 %
71 01-03-2021 12:49:18 12.5 C 30 %
72 01-03-2021 12:59:18 12.3 C 29 %
73 01-03-2021 13:09:17 13.3 C 26 %
74 01-03-2021 13:20:17 12.7 C 28 %
75 01-03-2021 13:30:17 15.2 C 26 %
Sensor: Nr:Datum:Temp:Feuchte:
Aussen-T/F 76 01-03-2021 13:40:17 13.4 C 26 %
77 01-03-2021 13:49:18 15 C 25 %
78 01-03-2021 13:59:18 12.9 C 26 %
79 01-03-2021 14:09:18 11.5 C 28 %
80 01-03-2021 14:29:17 11.7 C 28 %
81 01-03-2021 14:29:17 11.8 C 28 %
82 01-03-2021 14:39:18 12.3 C 27 %
83 01-03-2021 14:59:17 13 C 26 %
84 01-03-2021 14:59:18 13.5 C 26 %
85 01-03-2021 15:09:18 13.4 C 26 %
86 01-03-2021 15:19:18 14 C 25 %
87 01-03-2021 15:29:18 15 C 25 %
88 01-03-2021 15:39:17 15.5 C 24 %
89 01-03-2021 15:50:17 17.1 C 22 %
90 01-03-2021 15:59:18 17.6 C 22 %
91 01-03-2021 16:09:18 19.2 C 20 %
92 01-03-2021 16:19:18 17.6 C 20 %
93 01-03-2021 16:29:18 18.8 C 21 %
94 01-03-2021 16:40:17 17.5 C 20 %
95 01-03-2021 16:59:17 17.5 C 21 %
96 01-03-2021 16:59:17 18.1 C 20 %
97 01-03-2021 17:09:17 15.5 C 22 %
98 01-03-2021 17:29:17 12.2 C 28 %
99 01-03-2021 17:29:18 14.1 C 25 %
100 01-03-2021 17:39:17 11.2 C 30 %
Sensor: Nr:Datum:Temp:Feuchte:
G-T/H 1 01-03-2021 01:09:17 8.6 C 73 %
2 01-03-2021 01:19:17 8.6 C 73 %
3 01-03-2021 01:29:18 8.6 C 73 %
4 01-03-2021 01:39:18 8.6 C 73 %
5 01-03-2021 01:49:18 8.5 C 73 %
6 01-03-2021 01:59:18 8.5 C 73 %
7 01-03-2021 02:09:18 8.5 C 73 %
8 01-03-2021 02:19:17 8.5 C 73 %
9 01-03-2021 02:29:17 8.5 C 73 %
10 01-03-2021 02:39:17 8.5 C 73 %
11 01-03-2021 02:49:17 8.4 C 73 %
12 01-03-2021 02:59:17 8.5 C 73 %
13 01-03-2021 03:09:17 8.5 C 73 %
14 01-03-2021 03:19:18 8.4 C 73 %
15 01-03-2021 03:29:18 8.4 C 73 %
16 01-03-2021 03:39:17 8.4 C 73 %
17 01-03-2021 03:49:17 8.4 C 73 %
18 01-03-2021 03:59:17 8.3 C 73 %
19 01-03-2021 04:09:17 8.4 C 73 %
20 01-03-2021 04:19:17 8.3 C 73 %
21 01-03-2021 04:29:17 8.3 C 73 %
22 01-03-2021 04:39:17 8.3 C 72 %
23 01-03-2021 04:49:18 8.3 C 72 %
24 01-03-2021 04:59:18 8.2 C 72 %
25 01-03-2021 05:09:17 8.2 C 72 %
Sensor: Nr:Datum:Temp:Feuchte:
G-T/H 26 01-03-2021 05:19:18 8.2 C 72 %
27 01-03-2021 05:29:18 8.2 C 72 %
28 01-03-2021 05:39:17 8.2 C 72 %
29 01-03-2021 05:49:17 8.2 C 72 %
30 01-03-2021 05:59:17 8.1 C 72 %
31 01-03-2021 06:09:18 8.1 C 72 %
32 01-03-2021 06:19:18 8.1 C 72 %
33 01-03-2021 06:29:18 8.1 C 72 %
34 01-03-2021 06:39:17 8.1 C 72 %
35 01-03-2021 06:49:18 8 C 72 %
36 01-03-2021 06:59:18 8 C 72 %
37 01-03-2021 07:09:18 8 C 72 %
38 01-03-2021 07:29:17 8 C 72 %
39 01-03-2021 07:29:17 8 C 72 %
40 01-03-2021 07:39:17 7.9 C 73 %
41 01-03-2021 07:49:17 7.9 C 73 %
42 01-03-2021 07:59:17 7.9 C 73 %
43 01-03-2021 08:09:17 7.9 C 73 %
44 01-03-2021 08:19:17 7.9 C 73 %
45 01-03-2021 08:29:17 7.9 C 73 %
46 01-03-2021 08:39:18 7.9 C 73 %
47 01-03-2021 08:49:17 7.8 C 73 %
48 01-03-2021 08:59:17 7.8 C 73 %
49 01-03-2021 09:09:17 7.8 C 73 %
50 01-03-2021 09:19:17 7.8 C 73 %
Sensor: Nr:Datum:Temp:Feuchte:
G-T/H 51 01-03-2021 09:29:17 7.8 C 73 %
52 01-03-2021 09:39:18 7.8 C 73 %
53 01-03-2021 09:49:17 7.8 C 73 %
54 01-03-2021 09:59:17 7.8 C 73 %
55 01-03-2021 10:09:17 7.8 C 73 %
56 01-03-2021 10:19:18 7.7 C 73 %
57 01-03-2021 10:29:18 7.7 C 73 %
58 01-03-2021 10:39:17 7.7 C 73 %
59 01-03-2021 10:49:17 7.7 C 73 %
60 01-03-2021 10:59:17 7.7 C 73 %
61 01-03-2021 11:09:17 7.7 C 73 %
62 01-03-2021 11:19:18 7.7 C 73 %
63 01-03-2021 11:29:18 7.7 C 73 %
64 01-03-2021 11:39:17 7.7 C 73 %
65 01-03-2021 11:50:17 7.7 C 73 %
66 01-03-2021 12:00:17 7.7 C 73 %
67 01-03-2021 12:10:17 7.7 C 73 %
68 01-03-2021 12:20:17 7.7 C 73 %
69 01-03-2021 12:29:18 7.6 C 73 %
70 01-03-2021 12:39:18 7.7 C 73 %
71 01-03-2021 12:49:18 7.7 C 73 %
72 01-03-2021 12:59:18 7.8 C 73 %
73 01-03-2021 13:09:17 7.9 C 72 %
74 01-03-2021 13:20:17 8 C 70 %
75 01-03-2021 13:30:17 8 C 69 %
Sensor: Nr:Datum:Temp:Feuchte:
G-T/H 76 01-03-2021 13:40:17 7.9 C 69 %
77 01-03-2021 13:49:18 7.8 C 70 %
78 01-03-2021 13:59:18 7.8 C 70 %
79 01-03-2021 14:09:18 7.8 C 71 %
80 01-03-2021 14:29:17 7.8 C 71 %
81 01-03-2021 14:29:17 7.8 C 71 %
82 01-03-2021 14:39:18 7.9 C 71 %
83 01-03-2021 14:59:17 7.9 C 72 %
84 01-03-2021 14:59:18 7.9 C 72 %
85 01-03-2021 15:09:18 7.9 C 72 %
86 01-03-2021 15:19:18 7.9 C 72 %
87 01-03-2021 15:29:18 7.9 C 72 %
88 01-03-2021 15:39:17 7.9 C 72 %
89 01-03-2021 15:50:17 7.9 C 73 %
90 01-03-2021 15:59:18 7.9 C 73 %
91 01-03-2021 16:09:18 7.9 C 73 %
92 01-03-2021 16:19:18 7.9 C 73 %
93 01-03-2021 16:29:18 7.9 C 73 %
94 01-03-2021 16:40:17 8 C 72 %
95 01-03-2021 16:59:17 8 C 72 %
96 01-03-2021 16:59:17 8 C 72 %
97 01-03-2021 17:09:17 8 C 72 %
98 01-03-2021 17:29:17 8.1 C 72 %
99 01-03-2021 17:29:18 8 C 72 %
100 01-03-2021 17:39:17 8 C 72 %

Legende:
   Min
   Max


Maximal/Minimal-Werte vom 01.03.2021 - 01.03.2021

Sensor Min Max Avg
Temp
(Aussen-T/F)
-2.7 °C
01-03-2021  07:29:17
19.2 °C
01-03-2021  16:09:18
4.39 °C
Feuchte
(Aussen-T/F)
20 %
01-03-2021  16:09:18
50 %
01-03-2021  02:19:17
40.69 %
Temp
(G-T/H)
7.6 °C
01-03-2021  12:29:18
8.6 °C
01-03-2021  01:09:17
8.02 °C
Feuchte
(G-T/H)
69 %
01-03-2021  13:30:17
73 %
01-03-2021  01:09:17
72.43 %

Die Daten stammen von einer Davis Vantage Pro 2 Wetter-Station und werden unter Linux mit der Software wview2wettercgi und aufbereitet. Alle Angaben erfolgen ohne Gewähr für ihre Vollständigkeit oder Richtigkeit.
Kontakt: Rainer Krienke krienke@uni-koblenz.de . Meine Webseiten an der Uni Koblenz oder privat.
Version: $Revision: 0.78 $